createdAt,value
2018-11-21T00:02:03.009Z,12.53
2018-11-21T00:04:47.505Z,15.13
2018-11-21T00:07:17.763Z,14.13
2018-11-21T00:10:00.255Z,13.80
2018-11-21T00:12:42.399Z,13.13
2018-11-21T00:15:24.150Z,11.23
2018-11-21T00:18:06.699Z,10.40
2018-11-21T00:20:49.498Z,9.23
2018-11-21T00:23:31.785Z,12.47
2018-11-21T00:26:01.913Z,8.20
2018-11-21T00:28:32.018Z,7.50
2018-11-21T00:31:14.730Z,8.87
2018-11-21T00:33:44.971Z,8.47
2018-11-21T00:36:15.099Z,9.10
2018-11-21T00:38:57.585Z,7.70
2018-11-21T00:41:39.902Z,7.30
2018-11-21T00:44:21.876Z,9.70
2018-11-21T00:46:51.963Z,8.20
2018-11-21T00:49:34.054Z,7.83
2018-11-21T00:52:04.967Z,9.10
2018-11-21T00:54:46.817Z,9.40
2018-11-21T00:57:29.206Z,9.10
2018-11-21T01:00:12.341Z,7.93
2018-11-21T01:02:54.379Z,8.00
2018-11-21T01:05:36.478Z,7.13
2018-11-21T01:08:18.736Z,8.23
2018-11-21T01:11:01.400Z,8.57
2018-11-21T01:13:44.174Z,8.23
2018-11-21T01:16:14.370Z,7.50
2018-11-21T01:18:56.817Z,7.63
2018-11-21T01:21:39.001Z,8.33
2018-11-21T01:24:21.260Z,8.50
2018-11-21T01:27:03.712Z,7.33
2018-11-21T01:29:33.896Z,7.67
2018-11-21T01:32:16.753Z,7.10
2018-11-21T01:35:25.981Z,6.63
2018-11-21T01:37:56.082Z,6.03
2018-11-21T01:40:38.370Z,5.93
2018-11-21T01:43:20.951Z,6.93
2018-11-21T01:45:51.096Z,6.53
2018-11-21T01:48:33.222Z,7.47
2018-11-21T01:51:15.047Z,5.47
2018-11-21T01:53:57.542Z,6.20
2018-11-21T01:56:39.980Z,5.80
2018-11-21T01:59:20.621Z,5.73
2018-11-21T02:02:02.723Z,5.57
2018-11-21T02:04:44.642Z,6.23
2018-11-21T02:07:14.747Z,5.33
2018-11-21T02:09:44.871Z,5.70
2018-11-21T02:12:14.978Z,5.60
2018-11-21T02:14:57.224Z,5.77
2018-11-21T02:17:39.357Z,5.57
2018-11-21T02:20:21.605Z,4.90
2018-11-21T02:23:03.430Z,6.00
2018-11-21T02:25:45.390Z,5.97
2018-11-21T02:28:27.760Z,5.77
2018-11-21T02:31:10.621Z,6.23
2018-11-21T02:33:52.929Z,5.70
2018-11-21T02:36:23.016Z,6.37
2018-11-21T02:38:53.120Z,5.70
2018-11-21T02:41:35.033Z,6.80
2018-11-21T02:44:05.294Z,6.50
2018-11-21T02:46:47.370Z,6.60
2018-11-21T02:49:29.281Z,5.60
2018-11-21T02:52:11.990Z,6.23
2018-11-21T02:54:53.784Z,4.83
2018-11-21T02:57:36.697Z,5.17
2018-11-21T03:00:18.829Z,5.33
2018-11-21T03:03:01.392Z,4.27
2018-11-21T03:05:44.123Z,5.03
2018-11-21T03:08:14.206Z,5.97
2018-11-21T03:10:56.786Z,6.20
2018-11-21T03:13:39.117Z,6.37
2018-11-21T03:16:21.218Z,5.90
2018-11-21T03:19:03.225Z,7.93
2018-11-21T03:21:45.829Z,6.13
2018-11-21T03:24:28.211Z,6.40
2018-11-21T03:27:10.578Z,5.23
2018-11-21T03:29:52.408Z,6.67
2018-11-21T03:32:34.958Z,5.92
2018-11-21T03:35:05.460Z,5.50
2018-11-21T03:37:47.869Z,5.90
2018-11-21T03:40:17.957Z,6.43
2018-11-21T03:42:48.159Z,6.43
2018-11-21T03:45:30.056Z,6.80
2018-11-21T03:48:12.513Z,7.83
2018-11-21T03:50:54.902Z,8.20
2018-11-21T03:53:37.330Z,7.83
2018-11-21T03:56:19.484Z,6.73
2018-11-21T03:59:01.338Z,7.90
2018-11-21T04:01:43.789Z,7.20
2018-11-21T04:04:13.948Z,6.23
2018-11-21T04:06:56.206Z,6.57
2018-11-21T04:09:38.413Z,8.67
2018-11-21T04:12:19.269Z,7.17
2018-11-21T04:15:01.410Z,6.23
2018-11-21T04:17:31.555Z,7.40
2018-11-21T04:20:14.511Z,7.70
2018-11-21T04:22:44.591Z,7.50
2018-11-21T04:25:15.549Z,10.83
2018-11-21T04:27:57.481Z,8.27
2018-11-21T04:30:40.279Z,10.73
2018-11-21T04:33:22.310Z,8.10
2018-11-21T04:36:05.073Z,9.90
2018-11-21T04:38:47.559Z,8.80
2018-11-21T04:41:30.163Z,8.10
2018-11-21T04:44:12.278Z,7.83
2018-11-21T04:46:53.984Z,7.70
2018-11-21T04:49:36.142Z,7.30
2018-11-21T04:52:18.615Z,8.03
2018-11-21T04:55:00.344Z,7.40
2018-11-21T04:57:42.542Z,8.73
2018-11-21T05:00:23.004Z,9.13
2018-11-21T05:03:05.532Z,7.33
2018-11-21T05:05:48.211Z,7.43
2018-11-21T05:08:30.345Z,7.60
2018-11-21T05:11:12.338Z,7.47
2018-11-21T05:13:54.468Z,7.50
2018-11-21T05:16:24.641Z,6.90
2018-11-21T05:19:07.019Z,6.47
2018-11-21T05:21:49.131Z,6.87
2018-11-21T05:24:31.696Z,7.87
2018-11-21T05:27:13.662Z,8.27
2018-11-21T05:29:56.382Z,7.83
2018-11-21T05:32:38.740Z,9.07
2018-11-21T05:35:09.257Z,8.30
2018-11-21T05:37:49.792Z,9.07
2018-11-21T05:40:31.768Z,8.43
2018-11-21T05:43:13.807Z,8.07
2018-11-21T05:45:43.937Z,9.30
2018-11-21T05:48:26.447Z,8.60
2018-11-21T05:51:08.995Z,10.10
2018-11-21T05:53:51.636Z,7.33
2018-11-21T05:56:33.363Z,8.38
2018-11-21T05:59:15.282Z,9.40
2018-11-21T06:01:57.280Z,14.73
2018-11-21T06:04:39.536Z,12.40
2018-11-21T06:07:09.639Z,11.57
2018-11-21T06:09:51.448Z,105.87
2018-11-21T06:12:33.325Z,29.83
2018-11-21T06:15:16.028Z,16.80
2018-11-21T06:17:58.162Z,34.60
2018-11-21T06:20:40.383Z,51.30
2018-11-21T06:23:22.927Z,63.50
2018-11-21T06:26:05.544Z,29.33
2018-11-21T06:28:48.163Z,23.60
2018-11-21T06:31:29.977Z,32.50
2018-11-21T06:34:12.632Z,46.57
2018-11-21T06:36:56.037Z,21.07
2018-11-21T06:39:38.688Z,25.00
2018-11-21T06:42:08.863Z,17.60
2018-11-21T06:44:50.638Z,26.17
2018-11-21T06:47:32.861Z,37.17
2018-11-21T06:50:15.465Z,31.53
2018-11-21T06:52:58.964Z,30.63
2018-11-21T06:55:41.216Z,23.00
2018-11-21T06:58:23.317Z,20.40
2018-11-21T07:00:54.435Z,16.70
2018-11-21T07:03:24.525Z,13.30
2018-11-21T07:06:06.598Z,14.93
2018-11-21T07:08:48.432Z,25.27
2018-11-21T07:11:31.056Z,25.23
2018-11-21T07:14:13.585Z,33.23
2018-11-21T07:16:55.529Z,23.87
2018-11-21T07:19:25.710Z,20.17
2018-11-21T07:22:07.551Z,21.73
2018-11-21T07:24:49.456Z,19.30
2018-11-21T07:27:31.342Z,21.60
2018-11-21T07:30:14.638Z,19.17
2018-11-21T07:32:57.140Z,17.03
2018-11-21T07:35:39.591Z,15.43
2018-11-21T07:38:21.859Z,18.40
2018-11-21T07:41:04.427Z,23.47
2018-11-21T07:43:34.710Z,24.70
2018-11-21T07:46:05.608Z,20.92
2018-11-21T07:48:35.717Z,17.27
2018-11-21T07:51:06.033Z,15.30
2018-11-21T07:53:48.690Z,17.60
2018-11-21T07:56:31.435Z,18.57
2018-11-21T07:59:14.017Z,13.87
2018-11-21T08:02:08.295Z,35.30
2018-11-21T08:04:54.175Z,24.80
2018-11-21T08:07:41.820Z,32.13
2018-11-21T08:10:43.533Z,21.20
2018-11-21T08:13:47.953Z,19.83
2018-11-21T08:16:48.931Z,24.50
2018-11-21T08:19:50.279Z,19.03
2018-11-21T08:22:59.647Z,21.37
2018-11-21T08:25:53.532Z,17.47
2018-11-21T08:28:42.709Z,14.60
2018-11-21T08:31:25.218Z,16.67
2018-11-21T08:34:05.697Z,17.20
2018-11-21T08:36:48.007Z,18.20
2018-11-21T08:39:30.032Z,21.37
2018-11-21T08:42:12.712Z,20.63
2018-11-21T08:44:55.196Z,21.83
2018-11-21T08:47:37.100Z,24.70
2018-11-21T08:50:19.732Z,24.37
2018-11-21T08:53:02.778Z,20.10
2018-11-21T08:55:45.267Z,16.87
2018-11-21T08:58:27.645Z,22.03
2018-11-21T09:01:10.262Z,29.47
2018-11-21T09:03:52.819Z,17.47
2018-11-21T09:06:35.189Z,21.93
2018-11-21T09:09:08.668Z,22.73
2018-11-21T09:11:50.625Z,20.00
2018-11-21T09:14:32.566Z,25.10
2018-11-21T09:17:02.681Z,20.83
2018-11-21T09:19:45.170Z,19.93
2018-11-21T09:22:25.684Z,18.37
2018-11-21T09:25:07.644Z,22.23
2018-11-21T09:27:38.359Z,18.23
2018-11-21T09:30:21.407Z,17.60
2018-11-21T09:33:04.065Z,33.67
2018-11-21T09:35:46.449Z,32.87
2018-11-21T09:38:28.978Z,22.33
2018-11-21T09:41:11.081Z,23.67
2018-11-21T09:43:53.571Z,21.17
2018-11-21T09:46:35.925Z,12.67
2018-11-21T09:49:18.145Z,14.63
2018-11-21T09:52:00.075Z,15.53
2018-11-21T09:54:41.924Z,21.67
2018-11-21T09:57:23.720Z,17.17
2018-11-21T10:00:06.042Z,22.33
2018-11-21T10:02:48.756Z,22.40
2018-11-21T10:05:29.500Z,31.97
2018-11-21T10:08:11.291Z,19.73
2018-11-21T10:10:41.668Z,28.63
2018-11-21T10:13:23.748Z,26.53
2018-11-21T10:16:06.484Z,18.07
2018-11-21T10:18:49.885Z,24.43
2018-11-21T10:21:33.681Z,19.83
2018-11-21T10:24:15.640Z,17.40
2018-11-21T10:26:57.851Z,19.07
2018-11-21T10:29:40.397Z,28.20
2018-11-21T10:32:22.497Z,14.30
2018-11-21T10:35:05.083Z,19.13
2018-11-21T10:37:46.834Z,20.77
2018-11-21T10:40:27.306Z,28.23
2018-11-21T10:43:09.637Z,25.43
2018-11-21T10:45:51.821Z,44.37
2018-11-21T10:48:21.988Z,48.07
2018-11-21T10:51:04.258Z,42.83
2018-11-21T10:53:46.553Z,27.57
2018-11-21T10:56:29.268Z,17.57
2018-11-21T10:59:11.138Z,25.67
2018-11-21T11:02:12.358Z,18.80
2018-11-21T11:05:13.511Z,20.63
2018-11-21T11:08:15.244Z,14.83
2018-11-21T11:11:16.391Z,16.63
2018-11-21T11:14:17.718Z,14.23
2018-11-21T11:17:19.040Z,22.90
2018-11-21T11:20:20.784Z,24.33
2018-11-21T11:23:10.054Z,15.30
2018-11-21T11:26:10.569Z,21.73
2018-11-21T11:29:10.915Z,28.73
2018-11-21T11:32:04.212Z,31.87
2018-11-21T11:35:05.375Z,19.77
2018-11-21T11:38:06.672Z,35.00
2018-11-21T11:41:08.225Z,37.97
2018-11-21T11:44:15.524Z,28.10
2018-11-21T11:47:17.190Z,24.40
2018-11-21T11:50:18.292Z,21.30
2018-11-21T11:53:19.880Z,15.17
2018-11-21T11:56:21.058Z,13.67
2018-11-21T11:59:27.913Z,12.93
2018-11-21T12:02:32.133Z,21.77
2018-11-21T12:05:31.076Z,32.60
2018-11-21T12:08:32.365Z,44.27
2018-11-21T12:11:33.257Z,49.87
2018-11-21T12:14:34.663Z,38.67
2018-11-21T12:17:36.674Z,38.88
2018-11-21T12:20:38.198Z,38.10
2018-11-21T12:23:39.517Z,29.10
2018-11-21T12:26:40.596Z,23.20
2018-11-21T12:29:44.713Z,19.73
2018-11-21T12:32:45.951Z,15.50
2018-11-21T12:35:36.228Z,28.63
2018-11-21T12:38:37.362Z,24.60
2018-11-21T12:41:32.386Z,25.37
2018-11-21T12:44:39.980Z,30.87
2018-11-21T12:47:29.142Z,26.85
2018-11-21T12:50:30.584Z,21.87
2018-11-21T12:56:19.087Z,20.50
2018-11-21T12:59:20.442Z,20.23
2018-11-21T13:02:09.908Z,24.80
2018-11-21T13:04:59.049Z,20.43
2018-11-21T13:07:48.176Z,29.27
2018-11-21T13:10:50.460Z,18.37
2018-11-21T13:13:39.577Z,19.73
2018-11-21T13:16:41.082Z,23.03
2018-11-21T13:19:43.767Z,25.57
2018-11-21T13:22:40.382Z,29.77
2018-11-21T13:25:41.958Z,25.67
2018-11-21T13:28:43.568Z,22.83
2018-11-21T13:31:46.082Z,25.70
2018-11-21T13:34:47.589Z,35.47
2018-11-21T13:37:54.910Z,17.60
2018-11-21T13:40:44.165Z,35.53
2018-11-21T13:43:45.263Z,27.83
2018-11-21T13:46:46.072Z,29.40
2018-11-21T13:49:35.209Z,35.07
2018-11-21T13:52:36.860Z,31.03
2018-11-21T13:55:19.043Z,35.53
2018-11-21T13:58:01.041Z,34.43
2018-11-21T14:00:43.495Z,30.87
2018-11-21T14:03:13.633Z,35.20
2018-11-21T14:05:56.048Z,28.77
2018-11-21T14:08:26.247Z,33.87
2018-11-21T14:11:08.790Z,37.57
2018-11-21T14:13:51.415Z,38.57
2018-11-21T14:16:33.915Z,37.07
2018-11-21T14:19:16.152Z,28.20
2018-11-21T14:21:58.850Z,33.17
2018-11-21T14:24:41.040Z,34.40
2018-11-21T14:27:11.140Z,41.03
2018-11-21T14:29:53.816Z,40.53
2018-11-21T14:32:24.045Z,32.83
2018-11-21T14:35:06.293Z,50.73
2018-11-21T14:37:48.125Z,40.97
2018-11-21T14:40:19.129Z,25.87
2018-11-21T14:43:01.788Z,27.50
2018-11-21T14:45:31.909Z,32.33
2018-11-21T14:48:14.362Z,24.77
2018-11-21T14:50:57.347Z,31.83
2018-11-21T14:53:39.720Z,31.27
2018-11-21T14:56:22.093Z,32.13
2018-11-21T14:59:04.932Z,29.37
2018-11-21T15:01:47.157Z,38.67
2018-11-21T15:04:29.435Z,30.37
2018-11-21T15:07:11.697Z,38.27
2018-11-21T15:09:53.834Z,33.13
2018-11-21T15:12:23.945Z,33.80
2018-11-21T15:14:54.038Z,27.70
2018-11-21T15:20:07.207Z,40.97
2018-11-21T15:22:47.196Z,41.97
2018-11-21T15:25:28.930Z,34.03
2018-11-21T15:28:11.191Z,35.07
2018-11-21T15:30:53.145Z,43.17
2018-11-21T15:33:23.467Z,46.93
2018-11-21T15:36:05.801Z,64.60
2018-11-21T15:38:48.191Z,62.77
2018-11-21T15:41:30.051Z,47.93
2018-11-21T15:44:12.996Z,44.00
2018-11-21T15:46:55.098Z,34.20
2018-11-21T15:49:37.171Z,38.47
2018-11-21T15:52:07.330Z,109.00
2018-11-21T15:54:49.413Z,44.63
2018-11-21T15:57:32.051Z,46.03
2018-11-21T16:00:14.764Z,42.33
2018-11-21T16:02:58.449Z,45.57
2018-11-21T16:05:41.142Z,39.73
2018-11-21T16:08:22.933Z,36.43
2018-11-21T16:11:05.013Z,43.03
2018-11-21T16:13:47.281Z,27.07
2018-11-21T16:16:29.036Z,29.47
2018-11-21T16:19:11.717Z,35.30
2018-11-21T16:21:53.871Z,34.37
2018-11-21T16:24:36.359Z,31.77
2018-11-21T16:27:19.068Z,37.03
2018-11-21T16:30:01.944Z,61.07
2018-11-21T16:32:45.259Z,44.30
2018-11-21T16:35:27.290Z,31.03
2018-11-21T16:38:09.296Z,26.37
2018-11-21T16:40:40.061Z,22.03
2018-11-21T16:43:22.872Z,30.90
2018-11-21T16:46:05.699Z,32.37
2018-11-21T16:48:48.108Z,37.10
2018-11-21T16:51:30.680Z,26.87
2018-11-21T16:54:00.990Z,26.03
2018-11-21T16:56:43.105Z,23.80
2018-11-21T16:59:25.649Z,21.50
2018-11-21T17:02:08.327Z,29.13
2018-11-21T17:04:38.681Z,19.83
2018-11-21T17:07:21.318Z,24.43
2018-11-21T17:09:51.561Z,40.87
2018-11-21T17:12:33.255Z,44.23
2018-11-21T17:15:16.746Z,35.03
2018-11-21T17:17:58.619Z,26.43
2018-11-21T17:20:42.470Z,18.77
2018-11-21T17:23:24.234Z,21.27
2018-11-21T17:26:06.878Z,20.90
2018-11-21T17:28:50.664Z,31.00
2018-11-21T17:31:32.101Z,28.63
2018-11-21T17:34:14.665Z,40.27
2018-11-21T17:36:44.781Z,37.20
2018-11-21T17:39:27.247Z,48.85
2018-11-21T17:42:09.881Z,38.23
2018-11-21T17:44:53.262Z,35.10
2018-11-21T17:47:35.541Z,30.93
2018-11-21T17:50:21.684Z,34.00
2018-11-21T17:53:05.073Z,26.37
2018-11-21T17:55:47.499Z,25.00
2018-11-21T17:58:29.377Z,23.20
2018-11-21T18:01:11.520Z,37.57
2018-11-21T18:03:53.310Z,42.80
2018-11-21T18:06:35.117Z,44.53
2018-11-21T18:09:07.240Z,37.53
2018-11-21T18:11:37.383Z,33.27
2018-11-21T18:14:19.711Z,36.33
2018-11-21T18:16:49.849Z,33.57
2018-11-21T18:19:31.774Z,24.07
2018-11-21T18:22:13.628Z,21.03
2018-11-21T18:24:56.819Z,37.77
2018-11-21T18:27:39.278Z,37.10
2018-11-21T18:30:23.774Z,28.40
2018-11-21T18:33:05.517Z,23.33
2018-11-21T18:35:46.055Z,35.40
2018-11-21T18:38:28.299Z,32.33
2018-11-21T18:41:10.360Z,31.00
2018-11-21T18:43:52.949Z,26.23
2018-11-21T18:46:35.178Z,51.63
2018-11-21T18:49:17.996Z,61.17
2018-11-21T18:52:00.764Z,26.87
2018-11-21T18:54:41.287Z,29.10
2018-11-21T18:57:23.355Z,36.63
2018-11-21T19:00:32.057Z,46.17
2018-11-21T19:03:14.061Z,30.97
2018-11-21T19:05:57.835Z,34.10
2018-11-21T19:08:40.034Z,35.60
2018-11-21T19:11:22.147Z,27.87
2018-11-21T19:13:55.150Z,39.97
2018-11-21T19:16:37.523Z,33.27
2018-11-21T19:19:19.720Z,41.63
2018-11-21T19:22:01.755Z,40.50
2018-11-21T19:24:43.812Z,43.90
2018-11-21T19:27:24.349Z,38.17
2018-11-21T19:30:07.023Z,32.63
2018-11-21T19:35:31.601Z,28.80
2018-11-21T19:38:13.813Z,32.10
2018-11-21T19:40:55.906Z,32.87
2018-11-21T19:43:38.633Z,31.07
2018-11-21T19:46:08.736Z,24.57
2018-11-21T19:48:51.015Z,21.97
2018-11-21T19:51:21.166Z,29.17
2018-11-21T19:54:03.636Z,22.00
2018-11-21T19:56:33.769Z,42.83
2018-11-21T19:59:15.529Z,40.20
2018-11-21T20:01:58.191Z,24.50
2018-11-21T20:04:28.311Z,38.33
2018-11-21T20:07:10.547Z,28.90
2018-11-21T20:09:52.765Z,30.30
2018-11-21T20:12:39.805Z,29.40
2018-11-21T20:15:24.756Z,24.20
2018-11-21T20:18:07.118Z,30.00
2018-11-21T20:20:49.003Z,47.77
2018-11-21T20:23:31.259Z,23.23
2018-11-21T20:26:01.427Z,21.47
2018-11-21T20:28:43.335Z,19.70
2018-11-21T20:31:25.879Z,23.97
2018-11-21T20:34:08.555Z,23.00
2018-11-21T20:36:50.383Z,20.47
2018-11-21T20:39:32.743Z,30.80
2018-11-21T20:42:14.845Z,19.03
2018-11-21T20:44:57.489Z,19.10
2018-11-21T20:48:06.059Z,32.87
2018-11-21T20:50:48.040Z,22.20
2018-11-21T20:53:30.264Z,27.67
2018-11-21T20:56:13.138Z,20.83
2018-11-21T20:58:55.480Z,22.90
2018-11-21T21:01:36.056Z,20.33
2018-11-21T21:04:06.166Z,29.23
2018-11-21T21:06:48.393Z,22.53
2018-11-21T21:09:31.047Z,17.67
2018-11-21T21:12:13.082Z,16.50
2018-11-21T21:14:55.522Z,20.93
2018-11-21T21:17:25.691Z,31.77
2018-11-21T21:20:07.537Z,26.97
2018-11-21T21:22:51.281Z,23.43
2018-11-21T21:25:22.872Z,24.00
2018-11-21T21:28:05.383Z,27.97
2018-11-21T21:30:47.357Z,20.17
2018-11-21T21:33:29.243Z,33.53
2018-11-21T21:35:59.412Z,23.93
2018-11-21T21:38:41.316Z,27.80
2018-11-21T21:41:23.349Z,36.23
2018-11-21T21:44:06.167Z,21.23
2018-11-21T21:46:48.377Z,18.67
2018-11-21T21:49:30.980Z,21.03
2018-11-21T21:52:13.133Z,16.70
2018-11-21T21:54:55.421Z,19.27
2018-11-21T21:57:37.375Z,18.47
2018-11-21T22:00:21.142Z,30.00
2018-11-21T22:03:03.703Z,28.13
2018-11-21T22:05:45.997Z,31.67
2018-11-21T22:08:28.483Z,22.57
2018-11-21T22:11:10.792Z,20.90
2018-11-21T22:13:52.684Z,22.47
2018-11-21T22:16:35.407Z,25.17
2018-11-21T22:19:05.740Z,25.73
2018-11-21T22:21:48.017Z,24.37
2018-11-21T22:24:30.573Z,23.43
2018-11-21T22:27:12.586Z,22.83
2018-11-21T22:29:55.215Z,26.57
2018-11-21T22:32:37.205Z,32.03
2018-11-21T22:35:08.393Z,32.77
2018-11-21T22:37:51.449Z,35.47
2018-11-21T22:40:32.587Z,25.57
2018-11-21T22:43:14.843Z,23.37
2018-11-21T22:45:56.878Z,21.87
2018-11-21T22:48:39.555Z,20.27
2018-11-21T22:51:21.735Z,20.83
2018-11-21T22:54:04.630Z,19.70
2018-11-21T22:56:47.276Z,18.60
2018-11-21T22:59:17.415Z,19.27
2018-11-21T23:01:59.352Z,19.07
2018-11-21T23:04:41.436Z,17.47
2018-11-21T23:07:23.636Z,16.67
2018-11-21T23:10:06.276Z,18.63
2018-11-21T23:12:48.318Z,16.90
2018-11-21T23:15:30.320Z,16.70
2018-11-21T23:18:12.178Z,23.97
2018-11-21T23:20:54.742Z,18.03
2018-11-21T23:23:37.091Z,18.87
2018-11-21T23:26:07.193Z,15.83
2018-11-21T23:28:49.687Z,17.33
2018-11-21T23:31:19.808Z,17.97
2018-11-21T23:33:49.984Z,17.07
2018-11-21T23:36:32.616Z,22.60
2018-11-21T23:39:02.715Z,29.17
2018-11-21T23:41:32.846Z,38.17
2018-11-21T23:44:15.358Z,29.40
2018-11-21T23:46:57.329Z,45.40
2018-11-21T23:49:39.474Z,22.63
2018-11-21T23:52:22.258Z,23.17
2018-11-21T23:55:04.880Z,20.13
2018-11-21T23:57:47.299Z,16.90
